AUA255 EDDP-EDDN
Flight info
| Callsign | AUA255 |
|---|---|
| Flight time | 0h 34m |
| Altitude | 28000 |
| Route | GOLAT1K/08R GOLAT T202 TABAT Q244 PIVIR PIVIR1V |
| Aircraft | A20N/M-SDE2E3FGHIRWXY/LB1 |
Departure
| Time | 2026-05-05 19:10 |
|---|---|
| Airport | Leipzig/Halle Airport (EDDP) |
Arrival
| Time | 2026-05-05 19:44 |
|---|---|
| Airport | Nuremberg Airport (EDDN) |
| Time | Latitude | Longitude | Altitude | Speed | Heading |
|---|---|---|---|---|---|
| 2026-05-05 18:51 | 51.41944 | 12.21884 | 439 ft | 0 kts | 15° |
| 2026-05-05 18:59 | 51.41934 | 12.21880 | 426 ft | 2 kts | 15° |
| 2026-05-05 18:59 | 51.41918 | 12.21873 | 435 ft | 2 kts | 14° |
| 2026-05-05 19:00 | 51.41902 | 12.21866 | 429 ft | 2 kts | 14° |
| 2026-05-05 19:00 | 51.41886 | 12.21860 | 434 ft | 2 kts | 13° |
| 2026-05-05 19:00 | 51.41870 | 12.21855 | 429 ft | 2 kts | 10° |
| 2026-05-05 19:00 | 51.41854 | 12.21851 | 431 ft | 2 kts | 2° |
| 2026-05-05 19:01 | 51.41837 | 12.21854 | 430 ft | 2 kts | 302° |
| 2026-05-05 19:01 | 51.41835 | 12.21864 | 436 ft | 0 kts | 282° |
| 2026-05-05 19:04 | 51.41835 | 12.21861 | 442 ft | 2 kts | 282° |
| 2026-05-05 19:04 | 51.41855 | 12.21748 | 433 ft | 18 kts | 285° |
| 2026-05-05 19:05 | 51.41898 | 12.21499 | 425 ft | 28 kts | 285° |
| 2026-05-05 19:05 | 51.41952 | 12.21176 | 423 ft | 25 kts | 285° |
| 2026-05-05 19:05 | 51.41977 | 12.21030 | 427 ft | 16 kts | 286° |
| 2026-05-05 19:05 | 51.41946 | 12.20877 | 417 ft | 16 kts | 192° |
| 2026-05-05 19:06 | 51.41829 | 12.20820 | 428 ft | 20 kts | 194° |
| 2026-05-05 19:06 | 51.41678 | 12.20755 | 433 ft | 24 kts | 194° |
| 2026-05-05 19:06 | 51.41600 | 12.20722 | 428 ft | 3 kts | 194° |
| 2026-05-05 19:06 | 51.41534 | 12.20693 | 437 ft | 14 kts | 197° |
| 2026-05-05 19:07 | 51.41469 | 12.20663 | 430 ft | 0 kts | 195° |
| 2026-05-05 19:07 | 51.41433 | 12.20647 | 437 ft | 12 kts | 195° |
| 2026-05-05 19:08 | 51.41312 | 12.20594 | 438 ft | 23 kts | 195° |
| 2026-05-05 19:08 | 51.41174 | 12.20576 | 425 ft | 14 kts | 134° |
| 2026-05-05 19:08 | 51.41169 | 12.20669 | 427 ft | 0 kts | 85° |
| 2026-05-05 19:09 | 51.41176 | 12.20797 | 422 ft | 38 kts | 85° |
| 2026-05-05 19:09 | 51.41214 | 12.21594 | 448 ft | 103 kts | 86° |
| 2026-05-05 19:09 | 51.41284 | 12.23021 | 466 ft | 151 kts | 84° |
| 2026-05-05 19:10 | 51.41352 | 12.24725 | 968 ft | 155 kts | 84° |
| 2026-05-05 19:10 | 51.41416 | 12.26479 | 1606 ft | 160 kts | 84° |
| 2026-05-05 19:10 | 51.41476 | 12.28268 | 2240 ft | 164 kts | 85° |
| 2026-05-05 19:10 | 51.41511 | 12.30189 | 2622 ft | 183 kts | 94° |
| 2026-05-05 19:11 | 51.40952 | 12.32135 | 2976 ft | 209 kts | 130° |
| 2026-05-05 19:11 | 51.39642 | 12.33293 | 3591 ft | 225 kts | 167° |
| 2026-05-05 19:11 | 51.38095 | 12.33052 | 4628 ft | 228 kts | 201° |
| 2026-05-05 19:11 | 51.36836 | 12.31533 | 5564 ft | 231 kts | 230° |
| 2026-05-05 19:12 | 51.35953 | 12.29370 | 6453 ft | 233 kts | 242° |
| 2026-05-05 19:12 | 51.35301 | 12.26974 | 7317 ft | 236 kts | 248° |
| 2026-05-05 19:12 | 51.34651 | 12.24523 | 8201 ft | 243 kts | 242° |
| 2026-05-05 19:12 | 51.33736 | 12.22218 | 9119 ft | 249 kts | 226° |
| 2026-05-05 19:13 | 51.32398 | 12.20432 | 10009 ft | 254 kts | 211° |
| 2026-05-05 19:13 | 51.30877 | 12.18918 | 10874 ft | 261 kts | 211° |
| 2026-05-05 19:13 | 51.29346 | 12.17377 | 11735 ft | 268 kts | 211° |
| 2026-05-05 19:13 | 51.27735 | 12.15732 | 12659 ft | 273 kts | 211° |
| 2026-05-05 19:14 | 51.26125 | 12.14074 | 13660 ft | 275 kts | 211° |
| 2026-05-05 19:14 | 51.24525 | 12.12422 | 14604 ft | 273 kts | 211° |
| 2026-05-05 19:14 | 51.22958 | 12.10804 | 15568 ft | 271 kts | 211° |
| 2026-05-05 19:14 | 51.21367 | 12.09164 | 16591 ft | 266 kts | 212° |
| 2026-05-05 19:15 | 51.19827 | 12.07578 | 17629 ft | 260 kts | 212° |
| 2026-05-05 19:15 | 51.18322 | 12.06029 | 18546 ft | 256 kts | 212° |
| 2026-05-05 19:15 | 51.16804 | 12.04469 | 19056 ft | 268 kts | 212° |
| 2026-05-05 19:15 | 51.15203 | 12.02827 | 19230 ft | 291 kts | 212° |
| 2026-05-05 19:16 | 51.13371 | 12.01052 | 19412 ft | 313 kts | 206° |
| 2026-05-05 19:16 | 51.11280 | 11.99724 | 19591 ft | 334 kts | 196° |
| 2026-05-05 19:16 | 51.08932 | 11.98947 | 19765 ft | 354 kts | 190° |
| 2026-05-05 19:16 | 51.06497 | 11.98126 | 19996 ft | 370 kts | 193° |
| 2026-05-05 19:17 | 51.03964 | 11.97228 | 20620 ft | 375 kts | 192° |
| 2026-05-05 19:17 | 51.01408 | 11.96340 | 21343 ft | 377 kts | 192° |
| 2026-05-05 19:17 | 50.98828 | 11.95425 | 22014 ft | 381 kts | 193° |
| 2026-05-05 19:17 | 50.96236 | 11.94486 | 22695 ft | 384 kts | 193° |
| 2026-05-05 19:18 | 50.93635 | 11.93532 | 23348 ft | 387 kts | 193° |
| 2026-05-05 19:18 | 50.90997 | 11.92560 | 23904 ft | 390 kts | 193° |
| 2026-05-05 19:18 | 50.88328 | 11.91575 | 24478 ft | 393 kts | 193° |
| 2026-05-05 19:18 | 50.85656 | 11.90589 | 25011 ft | 396 kts | 193° |
| 2026-05-05 19:19 | 50.82968 | 11.89600 | 25544 ft | 399 kts | 193° |
| 2026-05-05 19:19 | 50.80253 | 11.88603 | 26060 ft | 401 kts | 193° |
| 2026-05-05 19:19 | 50.77513 | 11.87597 | 26558 ft | 405 kts | 193° |
| 2026-05-05 19:19 | 50.74767 | 11.86591 | 27042 ft | 408 kts | 193° |
| 2026-05-05 19:20 | 50.71997 | 11.85577 | 27524 ft | 410 kts | 193° |
| 2026-05-05 19:20 | 50.69201 | 11.84555 | 27748 ft | 414 kts | 193° |
| 2026-05-05 19:20 | 50.66387 | 11.83528 | 27782 ft | 414 kts | 193° |
| 2026-05-05 19:20 | 50.63620 | 11.82519 | 27785 ft | 414 kts | 192° |
| 2026-05-05 19:21 | 50.60780 | 11.81484 | 27787 ft | 415 kts | 192° |
| 2026-05-05 19:21 | 50.57971 | 11.80462 | 27795 ft | 415 kts | 192° |
| 2026-05-05 19:21 | 50.55188 | 11.79451 | 27794 ft | 416 kts | 192° |
| 2026-05-05 19:21 | 50.52368 | 11.78427 | 27802 ft | 416 kts | 192° |
| 2026-05-05 19:22 | 50.49553 | 11.77407 | 27797 ft | 416 kts | 192° |
| 2026-05-05 19:22 | 50.46733 | 11.76385 | 27558 ft | 416 kts | 192° |
| 2026-05-05 19:22 | 50.43907 | 11.75363 | 27050 ft | 416 kts | 192° |
| 2026-05-05 19:22 | 50.41091 | 11.74345 | 26316 ft | 415 kts | 192° |
| 2026-05-05 19:23 | 50.38285 | 11.73333 | 25578 ft | 414 kts | 192° |
| 2026-05-05 19:23 | 50.35483 | 11.72323 | 24847 ft | 412 kts | 192° |
| 2026-05-05 19:23 | 50.32693 | 11.71318 | 24139 ft | 411 kts | 192° |
| 2026-05-05 19:23 | 50.29906 | 11.70318 | 23436 ft | 407 kts | 192° |
| 2026-05-05 19:24 | 50.27184 | 11.69340 | 22619 ft | 397 kts | 192° |
| 2026-05-05 19:24 | 50.24527 | 11.68386 | 21831 ft | 387 kts | 192° |
| 2026-05-05 19:24 | 50.21930 | 11.67455 | 21053 ft | 378 kts | 192° |
| 2026-05-05 19:24 | 50.19385 | 11.66545 | 20302 ft | 374 kts | 192° |
| 2026-05-05 19:25 | 50.16866 | 11.65646 | 19561 ft | 370 kts | 192° |
| 2026-05-05 19:25 | 50.14363 | 11.64753 | 18833 ft | 364 kts | 192° |
| 2026-05-05 19:25 | 50.11906 | 11.63878 | 18128 ft | 361 kts | 192° |
| 2026-05-05 19:25 | 50.09472 | 11.63012 | 17327 ft | 356 kts | 192° |
| 2026-05-05 19:26 | 50.07075 | 11.62159 | 16550 ft | 350 kts | 192° |
| 2026-05-05 19:26 | 50.04699 | 11.61397 | 15786 ft | 346 kts | 188° |
| 2026-05-05 19:26 | 50.02327 | 11.61018 | 15044 ft | 341 kts | 184° |
| 2026-05-05 19:26 | 49.99965 | 11.60773 | 14317 ft | 338 kts | 184° |
| 2026-05-05 19:27 | 49.97647 | 11.60550 | 13608 ft | 334 kts | 184° |
| 2026-05-05 19:27 | 49.95334 | 11.60342 | 12815 ft | 329 kts | 184° |
| 2026-05-05 19:27 | 49.93060 | 11.60157 | 12040 ft | 326 kts | 184° |
| 2026-05-05 19:27 | 49.90831 | 11.59993 | 11287 ft | 322 kts | 184° |
| 2026-05-05 19:28 | 49.88575 | 11.59843 | 10543 ft | 318 kts | 184° |
| 2026-05-05 19:28 | 49.86416 | 11.59716 | 10047 ft | 313 kts | 184° |
| 2026-05-05 19:28 | 49.84206 | 11.59392 | 9856 ft | 315 kts | 191° |
| 2026-05-05 19:28 | 49.82102 | 11.58708 | 9793 ft | 301 kts | 194° |
| 2026-05-05 19:29 | 49.80102 | 11.58024 | 9793 ft | 294 kts | 194° |
| 2026-05-05 19:29 | 49.78080 | 11.57333 | 9792 ft | 298 kts | 194° |
| 2026-05-05 19:29 | 49.76070 | 11.56647 | 9790 ft | 296 kts | 194° |
| 2026-05-05 19:29 | 49.74069 | 11.55969 | 9795 ft | 297 kts | 194° |
| 2026-05-05 19:30 | 49.72034 | 11.55283 | 9758 ft | 297 kts | 194° |
| 2026-05-05 19:30 | 49.70017 | 11.54603 | 9372 ft | 296 kts | 194° |
| 2026-05-05 19:30 | 49.68006 | 11.53936 | 8656 ft | 295 kts | 194° |
| 2026-05-05 19:30 | 49.66029 | 11.53294 | 7907 ft | 294 kts | 194° |
| 2026-05-05 19:31 | 49.64022 | 11.52653 | 7217 ft | 291 kts | 194° |
| 2026-05-05 19:31 | 49.62065 | 11.52039 | 6926 ft | 287 kts | 194° |
| 2026-05-05 19:31 | 49.60097 | 11.51426 | 6821 ft | 289 kts | 194° |
| 2026-05-05 19:31 | 49.58127 | 11.50814 | 6808 ft | 289 kts | 194° |
| 2026-05-05 19:32 | 49.56153 | 11.50208 | 6568 ft | 290 kts | 194° |
| 2026-05-05 19:32 | 49.54186 | 11.49608 | 5988 ft | 289 kts | 194° |
| 2026-05-05 19:32 | 49.52208 | 11.49007 | 5238 ft | 289 kts | 194° |
| 2026-05-05 19:32 | 49.50235 | 11.48427 | 4500 ft | 287 kts | 194° |
| 2026-05-05 19:33 | 49.48313 | 11.47871 | 4141 ft | 274 kts | 194° |
| 2026-05-05 19:33 | 49.46510 | 11.47351 | 4001 ft | 253 kts | 194° |
| 2026-05-05 19:33 | 49.44849 | 11.46875 | 3992 ft | 235 kts | 194° |
| 2026-05-05 19:33 | 49.43272 | 11.46413 | 3989 ft | 227 kts | 199° |
| 2026-05-05 19:34 | 49.41974 | 11.45217 | 3998 ft | 219 kts | 231° |
| 2026-05-05 19:34 | 49.41338 | 11.43142 | 4001 ft | 218 kts | 263° |
| 2026-05-05 19:34 | 49.41572 | 11.40857 | 3997 ft | 221 kts | 295° |
| 2026-05-05 19:35 | 49.44168 | 11.38495 | 3999 ft | 238 kts | 359° |
| 2026-05-05 19:35 | 49.45828 | 11.38786 | 3999 ft | 241 kts | 5° |
| 2026-05-05 19:35 | 49.47478 | 11.39158 | 3997 ft | 242 kts | 4° |
| 2026-05-05 19:35 | 49.49158 | 11.39523 | 4000 ft | 241 kts | 4° |
| 2026-05-05 19:36 | 49.50819 | 11.39885 | 3996 ft | 241 kts | 4° |
| 2026-05-05 19:36 | 49.52465 | 11.40245 | 3994 ft | 241 kts | 4° |
| 2026-05-05 19:36 | 49.54133 | 11.40718 | 3990 ft | 243 kts | 17° |
| 2026-05-05 19:36 | 49.55526 | 11.42199 | 3991 ft | 249 kts | 49° |
| 2026-05-05 19:37 | 49.56266 | 11.44580 | 3997 ft | 253 kts | 81° |
| 2026-05-05 19:37 | 49.56151 | 11.47241 | 3990 ft | 250 kts | 112° |
| 2026-05-05 19:37 | 49.55188 | 11.49432 | 3993 ft | 244 kts | 145° |
| 2026-05-05 19:37 | 49.53694 | 11.50496 | 3992 ft | 234 kts | 177° |
| 2026-05-05 19:38 | 49.52164 | 11.50200 | 3985 ft | 217 kts | 209° |
| 2026-05-05 19:38 | 49.51107 | 11.48762 | 3984 ft | 196 kts | 244° |
| 2026-05-05 19:38 | 49.50650 | 11.46801 | 3993 ft | 198 kts | 254° |
| 2026-05-05 19:38 | 49.50263 | 11.44779 | 3993 ft | 196 kts | 254° |
| 2026-05-05 19:39 | 49.49882 | 11.42769 | 3994 ft | 196 kts | 254° |
| 2026-05-05 19:39 | 49.49498 | 11.40743 | 3994 ft | 197 kts | 254° |
| 2026-05-05 19:39 | 49.49118 | 11.38728 | 3994 ft | 197 kts | 254° |
| 2026-05-05 19:39 | 49.48735 | 11.36704 | 3996 ft | 197 kts | 254° |
| 2026-05-05 19:40 | 49.48355 | 11.34693 | 4000 ft | 196 kts | 254° |
| 2026-05-05 19:40 | 49.47979 | 11.32676 | 3993 ft | 197 kts | 256° |
| 2026-05-05 19:40 | 49.47779 | 11.30585 | 3814 ft | 198 kts | 268° |
| 2026-05-05 19:40 | 49.47849 | 11.28471 | 3539 ft | 198 kts | 275° |
| 2026-05-05 19:41 | 49.48040 | 11.26380 | 3270 ft | 196 kts | 278° |
| 2026-05-05 19:41 | 49.48238 | 11.24378 | 3038 ft | 180 kts | 277° |
| 2026-05-05 19:41 | 49.48419 | 11.22544 | 2810 ft | 174 kts | 277° |
| 2026-05-05 19:41 | 49.48591 | 11.20805 | 2583 ft | 155 kts | 277° |
| 2026-05-05 19:42 | 49.48741 | 11.19271 | 2376 ft | 136 kts | 278° |
| 2026-05-05 19:42 | 49.48833 | 11.18337 | 2251 ft | 128 kts | 278° |
| 2026-05-05 19:42 | 49.48969 | 11.16956 | 2078 ft | 132 kts | 278° |
| 2026-05-05 19:42 | 49.49106 | 11.15555 | 1875 ft | 133 kts | 278° |
| 2026-05-05 19:43 | 49.49245 | 11.14169 | 1644 ft | 133 kts | 278° |
| 2026-05-05 19:43 | 49.49384 | 11.12757 | 1464 ft | 132 kts | 278° |
| 2026-05-05 19:43 | 49.49517 | 11.11372 | 1294 ft | 131 kts | 278° |
| 2026-05-05 19:43 | 49.49651 | 11.09991 | 1156 ft | 131 kts | 278° |
| 2026-05-05 19:44 | 49.49789 | 11.08628 | 1044 ft | 122 kts | 279° |
| 2026-05-05 19:44 | 49.49877 | 11.07729 | 1047 ft | 36 kts | 278° |
| 2026-05-05 19:44 | 49.49903 | 11.07477 | 1045 ft | 27 kts | 279° |
| 2026-05-05 19:44 | 49.49936 | 11.07145 | 1039 ft | 33 kts | 279° |
| 2026-05-05 19:45 | 49.49893 | 11.07016 | 1035 ft | 15 kts | 184° |
| 2026-05-05 19:45 | 49.49835 | 11.07040 | 1035 ft | 0 kts | 161° |
| 2026-05-05 19:45 | 49.49832 | 11.07041 | 1035 ft | 3 kts | 161° |
| 2026-05-05 19:46 | 49.49776 | 11.07078 | 1034 ft | 14 kts | 145° |
| 2026-05-05 19:46 | 49.49737 | 11.07201 | 1036 ft | 11 kts | 101° |
| 2026-05-05 19:46 | 49.49720 | 11.07346 | 1038 ft | 17 kts | 99° |
| 2026-05-05 19:46 | 49.49703 | 11.07548 | 1042 ft | 18 kts | 98° |
| 2026-05-05 19:47 | 49.49685 | 11.07735 | 1043 ft | 16 kts | 110° |
| 2026-05-05 19:47 | 49.49605 | 11.07760 | 1038 ft | 3 kts | 211° |
| 2026-05-05 19:47 | 49.49594 | 11.07717 | 1037 ft | 10 kts | 259° |
| 2026-05-05 19:47 | 49.49536 | 11.07662 | 1033 ft | 6 kts | 188° |
| 2026-05-05 19:48 | 49.49535 | 11.07661 | 1032 ft | 0 kts | 188° |